Time,TemperatureF,DewpointF,PressureIn,WindDirection,WindDirectionDegrees,WindSpeedMPH,WindSpeedGustMPH,Humidity,HourlyPrecipIn,Conditions,Clouds,dailyrainin,SolarRadiationWatts/m^2,SoftwareType,DateUTC
2013-11-16 00:00:00,51.1,48.6,29.79,SSE,158,1.0,8.0,91,0.00,,OVC090,0.00,0.00,VWS V14.01,2013-11-16 06:00:00,
2013-11-16 00:05:00,51.1,48.6,29.79,SSE,158,1.0,4.0,91,0.00,,OVC090,0.00,0.00,VWS V14.01,2013-11-16 06:05:00,
2013-11-16 00:10:00,51.1,48.6,29.79,SE,135,1.0,5.0,91,0.00,,OVC090,0.00,0.00,VWS V14.01,2013-11-16 06:10:00,
2013-11-16 00:15:00,51.1,48.9,29.78,SSE,158,1.0,5.0,92,0.00,,OVC090,0.00,0.00,VWS V14.01,2013-11-16 06:15:00,
2013-11-16 00:20:00,51.1,48.9,29.78,SE,135,2.0,7.0,92,0.00,,OVC090,0.00,0.00,VWS V14.01,2013-11-16 06:20:00,
2013-11-16 00:25:00,51.1,48.9,29.78,SE,135,2.0,8.0,92,0.00,,OVC090,0.00,0.00,VWS V14.01,2013-11-16 06:25:00,
2013-11-16 00:30:00,51.0,48.8,29.77,ESE,112,2.0,5.0,92,0.00,,OVC090,0.00,0.00,VWS V14.01,2013-11-16 06:30:00,
2013-11-16 00:35:00,51.0,48.8,29.77,SE,135,2.0,8.0,92,0.00,,OVC090,0.00,0.00,VWS V14.01,2013-11-16 06:35:00,
2013-11-16 00:40:00,51.0,48.8,29.77,SE,135,1.0,7.0,92,0.00,,OVC090,0.00,0.00,VWS V14.01,2013-11-16 06:40:00,
2013-11-16 00:45:00,51.0,48.8,29.77,SE,135,1.0,5.0,92,0.00,,OVC090,0.00,0.00,VWS V14.01,2013-11-16 06:45:00,
2013-11-16 00:50:00,51.0,49.0,29.77,SE,135,2.0,6.0,93,0.00,,OVC090,0.00,0.00,VWS V14.01,2013-11-16 06:50:00,
2013-11-16 00:55:00,51.0,49.0,29.77,SE,135,1.0,8.0,93,0.00,,OVC090,0.00,0.00,VWS V14.01,2013-11-16 06:55:00,
2013-11-16 01:00:00,51.0,49.0,29.78,SSE,158,1.0,6.0,93,0.00,,OVC090,0.00,0.00,VWS V14.01,2013-11-16 07:00:00,
2013-11-16 01:05:00,51.0,49.0,29.78,ESE,112,1.0,6.0,93,0.00,,OVC090,0.00,0.00,VWS V14.01,2013-11-16 07:05:00,
2013-11-16 01:10:00,51.0,49.0,29.78,ESE,112,1.0,5.0,93,0.00,,OVC090,0.00,0.00,VWS V14.01,2013-11-16 07:10:00,
2013-11-16 01:15:00,51.1,49.2,29.78,ESE,112,2.0,6.0,93,0.00,,OVC090,0.00,0.00,VWS V14.01,2013-11-16 07:15:00,
2013-11-16 01:20:00,51.2,49.2,29.78,ESE,112,1.0,4.0,93,0.00,,OVC090,0.00,0.00,VWS V14.01,2013-11-16 07:20:00,
2013-11-16 01:25:00,51.2,49.2,29.78,SSE,158,1.0,6.0,93,0.00,,OVC090,0.00,0.00,VWS V14.01,2013-11-16 07:25:00,
2013-11-16 01:30:00,51.2,49.2,29.77,ESE,112,0.0,3.0,93,0.00,,OVC090,0.00,0.00,VWS V14.01,2013-11-16 07:30:00,
2013-11-16 01:35:00,51.2,49.2,29.77,SE,135,1.0,3.0,93,0.00,,OVC090,0.00,0.00,VWS V14.01,2013-11-16 07:35:00,
2013-11-16 01:40:00,51.2,49.2,29.77,SE,135,2.0,7.0,93,0.00,,OVC090,0.00,0.00,VWS V14.01,2013-11-16 07:40:00,
2013-11-16 01:45:00,51.2,49.2,29.77,SE,135,1.0,5.0,93,0.00,,OVC090,0.00,0.00,VWS V14.01,2013-11-16 07:45:00,
2013-11-16 01:50:00,51.2,49.5,29.77,SE,135,1.0,4.0,94,0.00,,OVC090,0.00,0.00,VWS V14.01,2013-11-16 07:50:00,
2013-11-16 01:55:00,51.2,49.5,29.77,SE,135,1.0,8.0,94,0.00,,OVC090,0.00,0.00,VWS V14.01,2013-11-16 07:55:00,
2013-11-16 02:00:00,51.3,49.6,29.76,SSE,158,2.0,7.0,94,0.00,,OVC090,0.00,0.00,VWS V14.01,2013-11-16 08:00:00,
2013-11-16 02:05:00,51.3,49.6,29.76,SE,135,2.0,7.0,94,0.00,,OVC090,0.00,0.00,VWS V14.01,2013-11-16 08:05:00,
2013-11-16 02:10:00,51.4,49.7,29.76,ESE,112,1.0,5.0,94,0.00,,OVC090,0.00,0.00,VWS V14.01,2013-11-16 08:10:00,
2013-11-16 02:15:00,51.5,49.8,29.76,SE,135,2.0,7.0,94,0.00,,OVC090,0.00,0.00,VWS V14.01,2013-11-16 08:15:00,
2013-11-16 02:20:00,51.5,49.8,29.76,SE,135,1.0,5.0,94,0.00,,OVC090,0.00,0.00,VWS V14.01,2013-11-16 08:20:00,
2013-11-16 02:25:00,51.7,50.0,29.76,South,180,1.0,5.0,94,0.00,,OVC090,0.00,0.00,VWS V14.01,2013-11-16 08:25:00,
2013-11-16 02:30:00,51.8,50.1,29.76,SE,135,2.0,5.0,94,0.00,,OVC090,0.00,0.00,VWS V14.01,2013-11-16 08:30:00,
2013-11-16 02:35:00,51.9,50.2,29.76,ESE,112,2.0,8.0,94,0.00,,OVC090,0.00,0.00,VWS V14.01,2013-11-16 08:35:00,
2013-11-16 02:40:00,52.1,50.4,29.76,SSE,158,2.0,9.0,94,0.00,,OVC090,0.00,0.00,VWS V14.01,2013-11-16 08:40:00,
2013-11-16 02:45:00,52.1,50.4,29.75,SSE,158,1.0,7.0,94,0.00,,OVC090,0.00,0.00,VWS V14.01,2013-11-16 08:45:00,
2013-11-16 02:50:00,52.2,50.5,29.75,SE,135,2.0,6.0,94,0.00,,OVC090,0.00,0.00,VWS V14.01,2013-11-16 08:50:00,
2013-11-16 02:55:00,52.2,50.5,29.75,ESE,112,1.0,4.0,94,0.00,,OVC090,0.00,0.00,VWS V14.01,2013-11-16 08:55:00,
2013-11-16 03:00:00,52.3,50.6,29.75,SE,135,3.0,8.0,94,0.00,,OVC090,0.00,0.00,VWS V14.01,2013-11-16 09:00:00,
2013-11-16 03:05:00,52.3,50.6,29.75,SSE,158,1.0,5.0,94,0.00,,OVC090,0.00,0.00,VWS V14.01,2013-11-16 09:05:00,
2013-11-16 03:10:00,52.4,50.7,29.75,SE,135,2.0,4.0,94,0.00,,OVC090,0.00,0.00,VWS V14.01,2013-11-16 09:10:00,
2013-11-16 03:15:00,52.6,50.9,29.75,SE,135,2.0,9.0,94,0.00,,OVC090,0.00,0.00,VWS V14.01,2013-11-16 09:15:00,
2013-11-16 03:20:00,52.7,51.0,29.75,SSE,158,3.0,12.0,94,0.00,,OVC090,0.00,0.00,VWS V14.01,2013-11-16 09:20:00,
2013-11-16 03:25:00,52.8,51.1,29.75,SE,135,2.0,6.0,94,0.00,,OVC090,0.00,0.00,VWS V14.01,2013-11-16 09:25:00,
2013-11-16 03:30:00,53.0,51.3,29.74,SE,135,2.0,8.0,94,0.00,,OVC090,0.00,0.00,VWS V14.01,2013-11-16 09:30:00,
2013-11-16 03:35:00,53.1,51.4,29.74,SSE,158,2.0,6.0,94,0.00,,OVC090,0.00,0.00,VWS V14.01,2013-11-16 09:35:00,
2013-11-16 03:40:00,53.1,51.1,29.74,SE,135,1.0,6.0,93,0.00,,OVC090,0.00,0.00,VWS V14.01,2013-11-16 09:40:00,
2013-11-16 03:45:00,53.2,51.2,29.74,SE,135,2.0,8.0,93,0.00,,OVC090,0.00,0.00,VWS V14.01,2013-11-16 09:45:00,
2013-11-16 03:50:00,53.3,51.3,29.74,ESE,112,2.0,7.0,93,0.00,,OVC090,0.00,0.00,VWS V14.01,2013-11-16 09:50:00,
2013-11-16 03:55:00,53.3,51.3,29.74,SE,135,1.0,9.0,93,0.00,,OVC090,0.00,0.00,VWS V14.01,2013-11-16 09:55:00,
2013-11-16 04:00:00,53.4,51.7,29.73,SE,135,1.0,7.0,94,0.00,,OVC090,0.00,0.00,VWS V14.01,2013-11-16 10:00:00,
2013-11-16 04:05:00,53.6,51.9,29.73,SSE,158,2.0,6.0,94,0.00,,OVC090,0.00,0.00,VWS V14.01,2013-11-16 10:05:00,
2013-11-16 04:10:00,53.7,52.0,29.73,SE,135,2.0,6.0,94,0.00,,OVC090,0.00,0.00,VWS V14.01,2013-11-16 10:10:00,
2013-11-16 04:15:00,53.9,51.9,29.73,ESE,112,1.0,6.0,93,0.00,,OVC090,0.00,0.00,VWS V14.01,2013-11-16 10:15:00,
2013-11-16 04:20:00,54.0,52.0,29.73,SSW,202,2.0,7.0,93,0.00,,OVC090,0.00,0.00,VWS V14.01,2013-11-16 10:20:00,
2013-11-16 04:25:00,54.2,52.5,29.73,SSE,158,2.0,6.0,94,0.00,,OVC090,0.00,0.00,VWS V14.01,2013-11-16 10:25:00,
2013-11-16 04:30:00,54.3,52.3,29.73,SE,135,1.0,5.0,93,0.00,,OVC090,0.00,0.00,VWS V14.01,2013-11-16 10:30:00,
2013-11-16 04:35:00,54.6,52.9,29.73,SE,135,1.0,5.0,94,0.00,,OVC090,0.00,0.00,VWS V14.01,2013-11-16 10:35:00,
2013-11-16 04:40:00,54.9,52.9,29.73,SSE,158,1.0,8.0,93,0.00,,OVC090,0.00,0.00,VWS V14.01,2013-11-16 10:40:00,
2013-11-16 04:45:00,55.1,53.1,29.73,SSE,158,1.0,4.0,93,0.00,,OVC090,0.00,0.00,VWS V14.01,2013-11-16 10:45:00,
2013-11-16 04:50:00,55.4,53.4,29.73,SSE,158,2.0,7.0,93,0.00,,OVC090,0.00,0.00,VWS V14.01,2013-11-16 10:50:00,
2013-11-16 04:55:00,55.6,53.3,29.73,SSE,158,1.0,5.0,92,0.00,,OVC090,0.00,0.00,VWS V14.01,2013-11-16 10:55:00,
2013-11-16 05:00:00,55.7,53.4,29.72,SE,135,0.0,4.0,92,0.00,,OVC090,0.00,0.00,VWS V14.01,2013-11-16 11:00:00,
2013-11-16 05:05:00,55.9,53.6,29.72,SE,135,2.0,6.0,92,0.00,,OVC090,0.00,0.00,VWS V14.01,2013-11-16 11:05:00,
2013-11-16 05:10:00,56.1,53.8,29.72,SE,135,1.0,5.0,92,0.00,,OVC090,0.00,0.00,VWS V14.01,2013-11-16 11:10:00,
2013-11-16 05:15:00,56.2,53.6,29.71,ESE,112,1.0,3.0,91,0.00,,OVC090,0.00,0.00,VWS V14.01,2013-11-16 11:15:00,
2013-11-16 05:20:00,56.3,53.7,29.71,SE,135,2.0,7.0,91,0.00,,OVC090,0.00,0.00,VWS V14.01,2013-11-16 11:20:00,
2013-11-16 05:25:00,56.3,53.7,29.71,SE,135,1.0,7.0,91,0.00,,OVC090,0.00,0.00,VWS V14.01,2013-11-16 11:25:00,
2013-11-16 05:30:00,56.4,53.8,29.71,SE,135,1.0,7.0,91,0.00,,OVC090,0.00,0.00,VWS V14.01,2013-11-16 11:30:00,
2013-11-16 05:35:00,56.5,53.9,29.71,SSE,158,3.0,5.0,91,0.00,,OVC090,0.00,0.00,VWS V14.01,2013-11-16 11:35:00,
2013-11-16 05:40:00,56.6,54.0,29.71,SE,135,1.0,6.0,91,0.00,,OVC090,0.00,0.00,VWS V14.01,2013-11-16 11:40:00,
2013-11-16 05:45:00,56.6,54.0,29.71,SE,135,1.0,5.0,91,0.00,,OVC090,0.00,0.00,VWS V14.01,2013-11-16 11:45:00,
2013-11-16 05:50:00,56.6,54.0,29.71,SSE,158,1.0,3.0,91,0.00,,OVC090,0.00,0.00,VWS V14.01,2013-11-16 11:50:00,
2013-11-16 05:55:00,56.6,54.0,29.71,SSE,158,1.0,4.0,91,0.00,,OVC090,0.00,0.00,VWS V14.01,2013-11-16 11:55:00,
2013-11-16 06:00:00,56.6,54.0,29.71,SE,135,2.0,7.0,91,0.00,,OVC090,0.00,0.00,VWS V14.01,2013-11-16 12:00:00,
2013-11-16 06:05:00,56.5,53.9,29.71,SE,135,1.0,5.0,91,0.00,,OVC090,0.00,0.00,VWS V14.01,2013-11-16 12:05:00,
2013-11-16 06:10:00,56.5,53.9,29.71,SE,135,2.0,7.0,91,0.00,,OVC090,0.00,0.00,VWS V14.01,2013-11-16 12:10:00,
2013-11-16 06:15:00,56.6,54.0,29.70,SE,135,2.0,8.0,91,0.00,,OVC090,0.00,0.00,VWS V14.01,2013-11-16 12:15:00,
2013-11-16 06:20:00,56.6,54.0,29.70,SE,135,2.0,7.0,91,0.00,,OVC090,0.00,0.00,VWS V14.01,2013-11-16 12:20:00,
2013-11-16 06:25:00,56.7,54.1,29.70,SE,135,2.0,7.0,91,0.00,,OVC090,0.00,0.00,VWS V14.01,2013-11-16 12:25:00,
2013-11-16 06:30:00,56.7,54.1,29.70,SSE,158,1.0,5.0,91,0.00,,OVC090,0.00,0.00,VWS V14.01,2013-11-16 12:30:00,
2013-11-16 06:35:00,56.8,54.2,29.70,ESE,112,1.0,4.0,91,0.00,,OVC090,0.00,0.00,VWS V14.01,2013-11-16 12:35:00,
2013-11-16 06:40:00,56.8,54.2,29.70,ESE,112,1.0,5.0,91,0.00,,OVC090,0.00,0.00,VWS V14.01,2013-11-16 12:40:00,
2013-11-16 06:45:00,56.8,54.2,29.69,ESE,112,2.0,8.0,91,0.00,,OVC090,0.00,0.00,VWS V14.01,2013-11-16 12:45:00,
2013-11-16 06:50:00,56.8,54.2,29.69,SE,135,2.0,8.0,91,0.00,,OVC090,0.00,0.00,VWS V14.01,2013-11-16 12:50:00,
2013-11-16 06:55:00,56.8,54.2,29.69,SE,135,2.0,8.0,91,0.00,,OVC090,0.00,2.00,VWS V14.01,2013-11-16 12:55:00,
2013-11-16 07:00:00,56.8,54.2,29.69,SE,135,2.0,8.0,91,0.00,,OVC090,0.00,7.00,VWS V14.01,2013-11-16 13:00:00,
2013-11-16 07:05:00,56.8,54.2,29.69,SE,135,1.0,8.0,91,0.00,,OVC090,0.00,7.00,VWS V14.01,2013-11-16 13:05:00,
2013-11-16 07:10:00,56.8,54.2,29.69,SE,135,4.0,12.0,91,0.00,,OVC090,0.00,7.00,VWS V14.01,2013-11-16 13:10:00,
2013-11-16 07:15:00,56.8,54.2,29.69,SE,135,2.0,8.0,91,0.00,,OVC090,0.00,11.00,VWS V14.01,2013-11-16 13:15:00,
2013-11-16 07:20:00,56.8,54.5,29.69,SSE,158,3.0,8.0,92,0.00,,OVC090,0.00,18.00,VWS V14.01,2013-11-16 13:20:00,
2013-11-16 07:25:00,56.8,54.5,29.69,SE,135,2.0,7.0,92,0.00,,OVC090,0.00,19.00,VWS V14.01,2013-11-16 13:25:00,
2013-11-16 07:30:00,56.9,54.6,29.69,SE,135,1.0,8.0,92,0.00,,OVC090,0.00,19.00,VWS V14.01,2013-11-16 13:30:00,
2013-11-16 07:35:00,56.9,54.6,29.69,SE,135,2.0,9.0,92,0.00,,OVC090,0.00,20.00,VWS V14.01,2013-11-16 13:35:00,
2013-11-16 07:40:00,56.9,54.6,29.69,SE,135,2.0,5.0,92,0.00,,OVC090,0.00,20.00,VWS V14.01,2013-11-16 13:40:00,
2013-11-16 07:45:00,57.0,54.7,29.68,SE,135,2.0,9.0,92,0.00,,OVC090,0.00,28.00,VWS V14.01,2013-11-16 13:45:00,
2013-11-16 07:50:00,57.1,54.8,29.68,SE,135,2.0,8.0,92,0.00,,OVC090,0.00,47.00,VWS V14.01,2013-11-16 13:50:00,
2013-11-16 07:55:00,57.3,55.0,29.68,SE,135,2.0,6.0,92,0.00,,OVC090,0.00,68.00,VWS V14.01,2013-11-16 13:55:00,
2013-11-16 08:00:00,57.7,55.1,29.68,SSE,158,3.0,11.0,91,0.00,,OVC090,0.00,77.00,VWS V14.01,2013-11-16 14:00:00,
2013-11-16 08:05:00,57.9,55.3,29.68,SE,135,2.0,10.0,91,0.00,,OVC090,0.00,44.00,VWS V14.01,2013-11-16 14:05:00,
2013-11-16 08:10:00,58.0,55.4,29.68,SSE,158,2.0,8.0,91,0.00,,OVC090,0.00,29.00,VWS V14.01,2013-11-16 14:10:00,
2013-11-16 08:15:00,58.0,55.1,29.69,SSE,158,2.0,8.0,90,0.00,,OVC090,0.00,29.00,VWS V14.01,2013-11-16 14:15:00,
2013-11-16 08:20:00,58.1,55.5,29.69,SE,135,1.0,7.0,91,0.00,,OVC090,0.00,65.00,VWS V14.01,2013-11-16 14:20:00,
2013-11-16 08:25:00,58.4,55.5,29.69,SE,135,2.0,8.0,90,0.00,,OVC090,0.00,89.00,VWS V14.01,2013-11-16 14:25:00,
2013-11-16 08:30:00,58.6,55.7,29.69,SE,135,2.0,8.0,90,0.00,,OVC090,0.00,74.00,VWS V14.01,2013-11-16 14:30:00,
2013-11-16 08:35:00,59.2,56.0,29.69,SSE,158,1.0,9.0,89,0.00,,OVC090,0.00,134.00,VWS V14.01,2013-11-16 14:35:00,
2013-11-16 08:40:00,59.8,56.2,29.69,SE,135,2.0,8.0,88,0.00,,OVC090,0.00,145.00,VWS V14.01,2013-11-16 14:40:00,
2013-11-16 08:45:00,60.1,56.5,29.69,SSW,202,1.0,7.0,88,0.00,,OVC090,0.00,98.00,VWS V14.01,2013-11-16 14:45:00,
2013-11-16 08:50:00,60.4,56.5,29.69,SSE,158,1.0,9.0,87,0.00,,OVC090,0.00,174.00,VWS V14.01,2013-11-16 14:50:00,
2013-11-16 08:55:00,60.8,56.9,29.69,SSE,158,1.0,7.0,87,0.00,,OVC090,0.00,147.00,VWS V14.01,2013-11-16 14:55:00,
2013-11-16 09:00:00,60.9,56.7,29.70,SSE,158,2.0,4.0,86,0.00,,OVC090,0.00,85.00,VWS V14.01,2013-11-16 15:00:00,
2013-11-16 09:05:00,60.9,56.7,29.70,SE,135,1.0,6.0,86,0.00,,OVC090,0.00,54.00,VWS V14.01,2013-11-16 15:05:00,
2013-11-16 09:10:00,60.9,56.7,29.70,SE,135,2.0,6.0,86,0.00,,OVC090,0.00,39.00,VWS V14.01,2013-11-16 15:10:00,
2013-11-16 09:15:00,60.9,56.7,29.70,SSE,158,0.0,4.0,86,0.00,,OVC090,0.00,23.00,VWS V14.01,2013-11-16 15:15:00,
2013-11-16 09:20:00,60.9,56.7,29.70,SSE,158,1.0,5.0,86,0.00,,OVC090,0.00,24.00,VWS V14.01,2013-11-16 15:20:00,
2013-11-16 09:25:00,61.0,56.8,29.70,SSE,158,1.0,8.0,86,0.00,,OVC090,0.00,29.00,VWS V14.01,2013-11-16 15:25:00,
2013-11-16 09:30:00,61.1,56.9,29.70,SSE,158,3.0,8.0,86,0.00,,OVC090,0.00,43.00,VWS V14.01,2013-11-16 15:30:00,
2013-11-16 09:35:00,61.2,57.0,29.70,South,180,1.0,4.0,86,0.00,,OVC090,0.00,61.00,VWS V14.01,2013-11-16 15:35:00,
2013-11-16 09:40:00,61.4,57.2,29.70,SW,225,2.0,6.0,86,0.00,,OVC090,0.00,67.00,VWS V14.01,2013-11-16 15:40:00,
2013-11-16 09:45:00,61.7,57.2,29.70,WSW,248,2.0,7.0,85,0.00,,OVC090,0.00,76.00,VWS V14.01,2013-11-16 15:45:00,
2013-11-16 09:50:00,62.1,57.5,29.70,SSW,202,2.0,8.0,85,0.00,,OVC090,0.00,76.00,VWS V14.01,2013-11-16 15:50:00,
2013-11-16 09:55:00,62.7,57.5,29.70,WSW,248,5.0,14.0,83,0.00,,OVC090,0.00,92.00,VWS V14.01,2013-11-16 15:55:00,
2013-11-16 10:00:00,63.1,57.5,29.70,South,180,3.0,14.0,82,0.00,,OVC090,0.00,66.00,VWS V14.01,2013-11-16 16:00:00,
2013-11-16 10:05:00,63.4,57.8,29.70,WSW,248,4.0,9.0,82,0.00,,OVC090,0.00,56.00,VWS V14.01,2013-11-16 16:05:00,
2013-11-16 10:10:00,63.5,57.6,29.70,SW,225,4.0,10.0,81,0.00,,OVC090,0.00,76.00,VWS V14.01,2013-11-16 16:10:00,
2013-11-16 10:15:00,63.8,57.5,29.69,SSE,158,3.0,9.0,80,0.00,,OVC090,0.00,101.00,VWS V14.01,2013-11-16 16:15:00,
2013-11-16 10:20:00,64.1,57.5,29.69,SSW,202,3.0,9.0,79,0.00,,OVC090,0.00,125.00,VWS V14.01,2013-11-16 16:20:00,
2013-11-16 10:25:00,64.4,57.8,29.69,SSW,202,4.0,11.0,79,0.00,,OVC090,0.00,118.00,VWS V14.01,2013-11-16 16:25:00,
2013-11-16 10:30:00,64.5,57.8,29.69,SW,225,4.0,13.0,79,0.00,,OVC090,0.00,129.00,VWS V14.01,2013-11-16 16:30:00,
2013-11-16 10:35:00,64.8,58.1,29.69,WSW,248,2.0,8.0,79,0.00,,OVC090,0.00,159.00,VWS V14.01,2013-11-16 16:35:00,
2013-11-16 10:40:00,65.0,58.0,29.69,SSE,158,3.0,12.0,78,0.00,,OVC090,0.00,165.00,VWS V14.01,2013-11-16 16:40:00,
2013-11-16 10:45:00,65.4,58.0,29.69,West,270,3.0,9.0,77,0.00,,OVC090,0.00,200.00,VWS V14.01,2013-11-16 16:45:00,
2013-11-16 10:50:00,65.6,57.8,29.69,SSW,202,3.0,7.0,76,0.00,,OVC090,0.00,207.00,VWS V14.01,2013-11-16 16:50:00,
2013-11-16 10:55:00,65.8,58.4,29.69,SW,225,2.0,6.0,77,0.00,,OVC090,0.00,191.00,VWS V14.01,2013-11-16 16:55:00,
2013-11-16 11:00:00,65.8,58.0,29.68,WSW,248,3.0,10.0,76,0.00,,OVC090,0.00,164.00,VWS V14.01,2013-11-16 17:00:00,
2013-11-16 11:05:00,65.7,57.9,29.68,SW,225,2.0,7.0,76,0.00,,OVC090,0.00,121.00,VWS V14.01,2013-11-16 17:05:00,
2013-11-16 11:10:00,65.9,57.8,29.68,SE,135,3.0,8.0,75,0.00,,OVC090,0.00,229.00,VWS V14.01,2013-11-16 17:10:00,
2013-11-16 11:15:00,66.1,57.6,29.67,SW,225,4.0,11.0,74,0.00,,OVC090,0.00,182.00,VWS V14.01,2013-11-16 17:15:00,
2013-11-16 11:20:00,66.1,58.0,29.67,SW,225,5.0,12.0,75,0.00,,OVC090,0.00,184.00,VWS V14.01,2013-11-16 17:20:00,
2013-11-16 11:25:00,66.3,58.2,29.67,SSW,202,4.0,10.0,75,0.00,,OVC090,0.00,190.00,VWS V14.01,2013-11-16 17:25:00,
2013-11-16 11:30:00,66.2,58.0,29.66,SSW,202,4.0,10.0,75,0.00,,OVC090,0.00,142.00,VWS V14.01,2013-11-16 17:30:00,
2013-11-16 11:35:00,66.1,57.6,29.66,SW,225,4.0,10.0,74,0.00,,OVC090,0.00,78.00,VWS V14.01,2013-11-16 17:35:00,
2013-11-16 11:40:00,66.0,57.9,29.66,SW,225,4.0,11.0,75,0.00,,OVC090,0.00,73.00,VWS V14.01,2013-11-16 17:40:00,
2013-11-16 11:45:00,65.9,57.4,29.66,SW,225,4.0,9.0,74,0.00,,OVC090,0.00,79.00,VWS V14.01,2013-11-16 17:45:00,
2013-11-16 11:50:00,66.1,57.6,29.66,SSE,158,3.0,10.0,74,0.00,,OVC090,0.00,114.00,VWS V14.01,2013-11-16 17:50:00,
2013-11-16 11:55:00,66.2,57.7,29.66,SW,225,3.0,9.0,74,0.00,,OVC090,0.00,113.00,VWS V14.01,2013-11-16 17:55:00,
2013-11-16 12:00:00,66.2,57.7,29.64,SSW,202,2.0,8.0,74,0.00,,OVC090,0.00,129.00,VWS V14.01,2013-11-16 18:00:00,
2013-11-16 12:05:00,66.3,57.8,29.64,SSE,158,3.0,9.0,74,0.00,,OVC090,0.00,100.00,VWS V14.01,2013-11-16 18:05:00,
2013-11-16 12:10:00,66.3,57.8,29.64,SSW,202,3.0,9.0,74,0.00,,OVC090,0.00,98.00,VWS V14.01,2013-11-16 18:10:00,
2013-11-16 12:15:00,66.2,58.0,29.62,SW,225,4.0,10.0,75,0.00,,OVC090,0.00,104.00,VWS V14.01,2013-11-16 18:15:00,
2013-11-16 12:20:00,65.8,58.4,29.62,SE,135,2.0,9.0,77,0.00,,OVC090,0.00,117.00,VWS V14.01,2013-11-16 18:20:00,
2013-11-16 12:25:00,65.5,58.1,29.62,SW,225,2.0,8.0,77,0.00,,OVC090,0.00,99.00,VWS V14.01,2013-11-16 18:25:00,
2013-11-16 12:30:00,65.7,57.9,29.60,SSE,158,3.0,8.0,76,0.00,,OVC090,0.00,108.00,VWS V14.01,2013-11-16 18:30:00,
2013-11-16 12:35:00,65.8,58.0,29.60,SSE,158,3.0,8.0,76,0.00,,OVC090,0.00,76.00,VWS V14.01,2013-11-16 18:35:00,
2013-11-16 12:40:00,65.9,57.4,29.60,SW,225,3.0,7.0,74,0.00,,OVC090,0.00,86.00,VWS V14.01,2013-11-16 18:40:00,
2013-11-16 12:45:00,66.1,57.6,29.60,SSW,202,3.0,8.0,74,0.00,,OVC090,0.00,84.00,VWS V14.01,2013-11-16 18:45:00,
2013-11-16 12:50:00,66.0,57.9,29.60,SE,135,3.0,7.0,75,0.00,,OVC090,0.00,100.00,VWS V14.01,2013-11-16 18:50:00,
2013-11-16 12:55:00,66.0,57.5,29.60,South,180,3.0,9.0,74,0.00,,OVC090,0.00,96.00,VWS V14.01,2013-11-16 18:55:00,
2013-11-16 13:00:00,65.9,57.8,29.58,SSE,158,3.0,9.0,75,0.00,,OVC090,0.00,85.00,VWS V14.01,2013-11-16 19:00:00,
2013-11-16 13:05:00,66.0,57.9,29.58,WSW,248,3.0,12.0,75,0.00,,OVC090,0.00,110.00,VWS V14.01,2013-11-16 19:05:00,
2013-11-16 13:10:00,66.1,57.6,29.58,SSE,158,4.0,15.0,74,0.01,,OVC090,0.01,116.00,VWS V14.01,2013-11-16 19:10:00,
2013-11-16 13:15:00,66.1,57.6,29.55,SSE,158,5.0,19.0,74,0.01,,OVC090,0.01,129.00,VWS V14.01,2013-11-16 19:15:00,
2013-11-16 13:20:00,66.5,58.0,29.55,SSE,158,5.0,19.0,74,0.01,,OVC090,0.01,222.00,VWS V14.01,2013-11-16 19:20:00,
2013-11-16 13:25:00,67.3,58.0,29.55,South,180,4.0,11.0,72,0.01,,OVC090,0.01,295.00,VWS V14.01,2013-11-16 19:25:00,
2013-11-16 13:30:00,67.9,58.2,29.55,SSE,158,4.0,10.0,71,0.01,,OVC090,0.01,328.00,VWS V14.01,2013-11-16 19:30:00,
2013-11-16 13:35:00,68.6,58.4,29.55,SE,135,5.0,13.0,70,0.01,,OVC090,0.01,367.00,VWS V14.01,2013-11-16 19:35:00,
2013-11-16 13:40:00,68.9,58.3,29.55,SSE,158,5.0,13.0,69,0.01,,OVC090,0.01,477.00,VWS V14.01,2013-11-16 19:40:00,
2013-11-16 13:45:00,69.4,59.2,29.55,SSE,158,5.0,15.0,70,0.01,,OVC090,0.01,479.00,VWS V14.01,2013-11-16 19:45:00,
2013-11-16 13:50:00,69.4,58.4,29.55,SE,135,5.0,13.0,68,0.01,,OVC090,0.01,374.00,VWS V14.01,2013-11-16 19:50:00,
2013-11-16 13:55:00,69.4,58.8,29.55,SW,225,5.0,14.0,69,0.01,,OVC090,0.01,473.00,VWS V14.01,2013-11-16 19:55:00,
2013-11-16 14:00:00,68.9,57.9,29.54,SE,135,7.0,26.0,68,0.01,,OVC090,0.01,199.00,VWS V14.01,2013-11-16 20:00:00,
2013-11-16 14:05:00,68.3,57.8,29.54,SSE,158,4.0,26.0,69,0.01,,OVC090,0.01,222.00,VWS V14.01,2013-11-16 20:05:00,
2013-11-16 14:10:00,68.3,58.5,29.54,SW,225,4.0,15.0,71,0.01,,OVC090,0.01,226.00,VWS V14.01,2013-11-16 20:10:00,
2013-11-16 14:15:00,68.3,58.2,29.52,South,180,4.0,12.0,70,0.00,,OVC090,0.01,224.00,VWS V14.01,2013-11-16 20:15:00,
2013-11-16 14:20:00,69.5,58.9,29.52,SE,135,4.0,12.0,69,0.00,,OVC090,0.01,513.00,VWS V14.01,2013-11-16 20:20:00,
2013-11-16 14:25:00,70.2,58.3,29.52,South,180,5.0,13.0,66,0.00,,OVC090,0.01,430.00,VWS V14.01,2013-11-16 20:25:00,
2013-11-16 14:30:00,70.2,58.7,29.52,SW,225,4.0,12.0,67,0.00,,OVC090,0.01,376.00,VWS V14.01,2013-11-16 20:30:00,
2013-11-16 14:35:00,70.7,58.8,29.52,SW,225,4.0,12.0,66,0.00,,OVC090,0.01,431.00,VWS V14.01,2013-11-16 20:35:00,
2013-11-16 14:40:00,70.7,58.4,29.52,SSE,158,5.0,12.0,65,0.00,,OVC090,0.01,349.00,VWS V14.01,2013-11-16 20:40:00,
2013-11-16 14:45:00,70.3,58.4,29.52,WSW,248,3.0,8.0,66,0.00,,OVC090,0.01,247.00,VWS V14.01,2013-11-16 20:45:00,
2013-11-16 14:50:00,70.6,58.7,29.52,SE,135,4.0,15.0,66,0.00,,OVC090,0.01,291.00,VWS V14.01,2013-11-16 20:50:00,
2013-11-16 14:55:00,70.8,58.5,29.52,SE,135,4.0,16.0,65,0.00,,OVC090,0.01,329.00,VWS V14.01,2013-11-16 20:55:00,
2013-11-16 15:00:00,71.1,59.2,29.51,SW,225,3.0,11.0,66,0.00,,OVC090,0.01,282.00,VWS V14.01,2013-11-16 21:00:00,
2013-11-16 15:05:00,70.8,58.5,29.51,SSE,158,4.0,12.0,65,0.00,,OVC090,0.01,298.00,VWS V14.01,2013-11-16 21:05:00,
2013-11-16 15:10:00,70.9,58.6,29.51,SSE,158,5.0,12.0,65,0.00,,OVC090,0.01,297.00,VWS V14.01,2013-11-16 21:10:00,
2013-11-16 15:15:00,70.7,58.4,29.50,SE,135,4.0,11.0,65,0.00,,OVC090,0.01,259.00,VWS V14.01,2013-11-16 21:15:00,
2013-11-16 15:20:00,70.7,58.4,29.50,SW,225,4.0,10.0,65,0.00,,OVC090,0.01,263.00,VWS V14.01,2013-11-16 21:20:00,
2013-11-16 15:25:00,70.8,58.5,29.50,SW,225,4.0,10.0,65,0.00,,OVC090,0.01,222.00,VWS V14.01,2013-11-16 21:25:00,
2013-11-16 15:30:00,70.7,57.9,29.50,SSE,158,3.0,9.0,64,0.00,,OVC090,0.01,148.00,VWS V14.01,2013-11-16 21:30:00,
2013-11-16 15:35:00,70.8,58.5,29.50,SSW,202,4.0,13.0,65,0.00,,OVC090,0.01,205.00,VWS V14.01,2013-11-16 21:35:00,
2013-11-16 15:40:00,71.0,58.2,29.50,SSW,202,5.0,13.0,64,0.00,,OVC090,0.01,190.00,VWS V14.01,2013-11-16 21:40:00,
2013-11-16 15:45:00,70.9,58.1,29.50,SSE,158,3.0,11.0,64,0.00,,OVC090,0.01,164.00,VWS V14.01,2013-11-16 21:45:00,
2013-11-16 15:50:00,70.6,57.8,29.50,SSE,158,3.0,10.0,64,0.00,,OVC090,0.01,137.00,VWS V14.01,2013-11-16 21:50:00,
2013-11-16 15:55:00,70.4,57.7,29.50,South,180,4.0,12.0,64,0.00,,OVC090,0.01,141.00,VWS V14.01,2013-11-16 21:55:00,
2013-11-16 16:00:00,70.2,57.5,29.50,WSW,248,5.0,12.0,64,0.00,,OVC090,0.01,112.00,VWS V14.01,2013-11-16 22:00:00,
2013-11-16 16:05:00,69.9,57.6,29.50,SW,225,4.0,15.0,65,0.00,,OVC090,0.01,113.00,VWS V14.01,2013-11-16 22:05:00,
2013-11-16 16:10:00,69.6,57.8,29.50,SE,135,3.0,9.0,66,0.00,,OVC090,0.01,91.00,VWS V14.01,2013-11-16 22:10:00,
2013-11-16 16:15:00,69.3,57.5,29.52,WSW,248,5.0,17.0,66,0.00,,OVC090,0.01,41.00,VWS V14.01,2013-11-16 22:15:00,
2013-11-16 16:20:00,68.9,57.5,29.52,SW,225,4.0,15.0,67,0.00,,OVC090,0.01,55.00,VWS V14.01,2013-11-16 22:20:00,
2013-11-16 16:25:00,68.7,57.3,29.52,SSE,158,4.0,12.0,67,0.00,,OVC090,0.01,52.00,VWS V14.01,2013-11-16 22:25:00,
2013-11-16 16:30:00,68.6,57.6,29.52,WSW,248,4.0,9.0,68,0.00,,OVC090,0.01,48.00,VWS V14.01,2013-11-16 22:30:00,
2013-11-16 16:35:00,68.5,57.5,29.52,SW,225,4.0,16.0,68,0.00,,OVC090,0.01,31.00,VWS V14.01,2013-11-16 22:35:00,
2013-11-16 16:40:00,68.5,57.5,29.52,SSE,158,4.0,13.0,68,0.00,,OVC090,0.01,23.00,VWS V14.01,2013-11-16 22:40:00,
2013-11-16 16:45:00,68.3,57.3,29.52,SW,225,4.0,9.0,68,0.00,,OVC090,0.01,15.00,VWS V14.01,2013-11-16 22:45:00,
2013-11-16 16:50:00,68.1,57.6,29.52,SW,225,5.0,14.0,69,0.00,,OVC090,0.01,7.00,VWS V14.01,2013-11-16 22:50:00,
2013-11-16 16:55:00,67.9,57.4,29.52,SSW,202,3.0,11.0,69,0.00,,OVC090,0.01,0.00,VWS V14.01,2013-11-16 22:55:00,
2013-11-16 17:00:00,67.6,57.5,29.52,South,180,2.0,7.0,70,0.00,,OVC090,0.01,0.00,VWS V14.01,2013-11-16 23:00:00,
2013-11-16 17:05:00,67.4,57.7,29.52,SSE,158,2.0,9.0,71,0.00,,OVC090,0.01,0.00,VWS V14.01,2013-11-16 23:05:00,
2013-11-16 17:10:00,67.2,57.5,29.52,SW,225,1.0,7.0,71,0.00,,OVC090,0.01,0.00,VWS V14.01,2013-11-16 23:10:00,
2013-11-16 17:15:00,67.0,57.7,29.52,SSW,202,2.0,8.0,72,0.00,,OVC090,0.01,0.00,VWS V14.01,2013-11-16 23:15:00,
2013-11-16 17:20:00,66.7,57.8,29.52,SE,135,1.0,4.0,73,0.00,,OVC090,0.01,0.00,VWS V14.01,2013-11-16 23:20:00,
2013-11-16 17:25:00,66.5,57.6,29.52,SSE,158,3.0,7.0,73,0.00,,OVC090,0.01,0.00,VWS V14.01,2013-11-16 23:25:00,
2013-11-16 17:30:00,66.4,57.5,29.51,SSE,158,3.0,12.0,73,0.00,,OVC090,0.01,0.00,VWS V14.01,2013-11-16 23:30:00,
2013-11-16 17:35:00,66.2,57.7,29.51,SW,225,3.0,12.0,74,0.00,,OVC090,0.01,0.00,VWS V14.01,2013-11-16 23:35:00,
2013-11-16 17:40:00,66.0,57.5,29.51,SW,225,2.0,6.0,74,0.00,,OVC090,0.01,0.00,VWS V14.01,2013-11-16 23:40:00,
2013-11-16 17:45:00,65.9,57.8,29.52,SSE,158,3.0,11.0,75,0.00,,OVC090,0.01,0.00,VWS V14.01,2013-11-16 23:45:00,
2013-11-16 17:50:00,65.8,57.7,29.52,SSE,158,2.0,9.0,75,0.00,,OVC090,0.01,0.00,VWS V14.01,2013-11-16 23:50:00,
2013-11-16 17:55:00,65.8,57.7,29.52,South,180,2.0,9.0,75,0.00,,OVC090,0.01,0.00,VWS V14.01,2013-11-16 23:55:00,
2013-11-16 18:00:00,65.7,57.9,29.53,SW,225,1.0,6.0,76,0.00,,OVC090,0.01,0.00,VWS V14.01,2013-11-17 00:00:00,
2013-11-16 18:05:00,65.6,57.8,29.53,WSW,248,1.0,5.0,76,0.00,,OVC090,0.01,0.00,VWS V14.01,2013-11-17 00:05:00,
2013-11-16 18:10:00,65.6,57.8,29.53,SW,225,3.0,8.0,76,0.00,,OVC090,0.01,0.00,VWS V14.01,2013-11-17 00:10:00,
2013-11-16 18:15:00,65.6,57.8,29.53,SSE,158,2.0,9.0,76,0.00,,OVC090,0.01,0.00,VWS V14.01,2013-11-17 00:15:00,
2013-11-16 18:20:00,65.6,57.8,29.53,SSE,158,3.0,9.0,76,0.00,,OVC090,0.01,0.00,VWS V14.01,2013-11-17 00:20:00,
2013-11-16 18:25:00,65.5,57.7,29.53,SE,135,2.0,8.0,76,0.00,,OVC090,0.01,0.00,VWS V14.01,2013-11-17 00:25:00,
2013-11-16 18:30:00,65.5,57.7,29.53,SSW,202,2.0,6.0,76,0.00,,OVC090,0.01,0.00,VWS V14.01,2013-11-17 00:30:00,
2013-11-16 18:35:00,65.4,57.7,29.53,SE,135,2.0,6.0,76,0.00,,OVC090,0.01,0.00,VWS V14.01,2013-11-17 00:35:00,
2013-11-16 18:40:00,65.3,57.5,29.53,SSE,158,1.0,5.0,76,0.00,,OVC090,0.01,0.00,VWS V14.01,2013-11-17 00:40:00,
2013-11-16 18:45:00,65.3,57.5,29.53,SW,225,2.0,6.0,76,0.00,,OVC090,0.01,0.00,VWS V14.01,2013-11-17 00:45:00,
2013-11-16 18:50:00,65.3,57.9,29.53,SW,225,2.0,6.0,77,0.00,,OVC090,0.01,0.00,VWS V14.01,2013-11-17 00:50:00,
2013-11-16 18:55:00,65.3,57.9,29.53,SSE,158,3.0,7.0,77,0.00,,OVC090,0.01,0.00,VWS V14.01,2013-11-17 00:55:00,
2013-11-16 19:00:00,65.3,57.5,29.53,SSE,158,1.0,6.0,76,0.00,,OVC090,0.01,0.00,VWS V14.01,2013-11-17 01:00:00,
2013-11-16 19:05:00,65.3,57.9,29.53,SSW,202,2.0,8.0,77,0.00,,OVC090,0.01,0.00,VWS V14.01,2013-11-17 01:05:00,
2013-11-16 19:10:00,65.3,57.9,29.53,SSE,158,1.0,10.0,77,0.00,,OVC090,0.01,0.00,VWS V14.01,2013-11-17 01:10:00,
2013-11-16 19:15:00,65.3,57.9,29.53,SSW,202,2.0,7.0,77,0.00,,OVC090,0.01,0.00,VWS V14.01,2013-11-17 01:15:00,
2013-11-16 19:20:00,65.2,57.8,29.53,South,180,1.0,6.0,77,0.00,,OVC090,0.01,0.00,VWS V14.01,2013-11-17 01:20:00,
2013-11-16 19:25:00,65.1,57.7,29.53,South,180,1.0,5.0,77,0.00,,OVC090,0.01,0.00,VWS V14.01,2013-11-17 01:25:00,
2013-11-16 19:30:00,65.0,57.6,29.53,SE,135,1.0,7.0,77,0.00,,OVC090,0.01,0.00,VWS V14.01,2013-11-17 01:30:00,
2013-11-16 19:35:00,64.9,57.9,29.53,WSW,248,1.0,9.0,78,0.00,,OVC090,0.01,0.00,VWS V14.01,2013-11-17 01:35:00,
2013-11-16 19:40:00,64.8,57.8,29.53,SSE,158,1.0,6.0,78,0.00,,OVC090,0.01,0.00,VWS V14.01,2013-11-17 01:40:00,
2013-11-16 19:45:00,64.9,58.2,29.54,SSE,158,2.0,8.0,79,0.00,,OVC090,0.01,0.00,VWS V14.01,2013-11-17 01:45:00,
2013-11-16 19:50:00,65.0,58.3,29.54,SW,225,2.0,7.0,79,0.00,,OVC090,0.01,0.00,VWS V14.01,2013-11-17 01:50:00,
2013-11-16 19:55:00,65.1,58.4,29.54,WSW,248,3.0,9.0,79,0.00,,OVC090,0.01,0.00,VWS V14.01,2013-11-17 01:55:00,
2013-11-16 20:00:00,65.2,58.5,29.55,WSW,248,3.0,7.0,79,0.00,,OVC090,0.01,0.00,VWS V14.01,2013-11-17 02:00:00,
2013-11-16 20:05:00,65.4,58.7,29.55,SW,225,2.0,7.0,79,0.00,,OVC090,0.01,0.00,VWS V14.01,2013-11-17 02:05:00,
2013-11-16 20:10:00,65.4,58.7,29.55,SW,225,2.0,10.0,79,0.00,,OVC090,0.01,0.00,VWS V14.01,2013-11-17 02:10:00,
2013-11-16 20:15:00,65.5,58.8,29.54,WSW,248,3.0,8.0,79,0.00,,OVC090,0.01,0.00,VWS V14.01,2013-11-17 02:15:00,
2013-11-16 20:20:00,65.6,58.9,29.54,SW,225,2.0,7.0,79,0.00,,OVC090,0.01,0.00,VWS V14.01,2013-11-17 02:20:00,
2013-11-16 20:25:00,65.6,58.9,29.54,SW,225,3.0,13.0,79,0.00,,OVC090,0.01,0.00,VWS V14.01,2013-11-17 02:25:00,
2013-11-16 20:30:00,65.6,59.3,29.54,WSW,248,3.0,11.0,80,0.00,,OVC090,0.01,0.00,VWS V14.01,2013-11-17 02:30:00,
2013-11-16 20:35:00,65.7,59.4,29.54,South,180,4.0,13.0,80,0.00,,OVC090,0.01,0.00,VWS V14.01,2013-11-17 02:35:00,
2013-11-16 20:40:00,65.8,59.5,29.54,WSW,248,4.0,11.0,80,0.00,,OVC090,0.01,0.00,VWS V14.01,2013-11-17 02:40:00,
2013-11-16 20:45:00,65.9,59.6,29.54,SW,225,4.0,10.0,80,0.00,,OVC090,0.01,0.00,VWS V14.01,2013-11-17 02:45:00,
2013-11-16 20:50:00,65.9,59.6,29.54,SW,225,4.0,10.0,80,0.00,,OVC090,0.01,0.00,VWS V14.01,2013-11-17 02:50:00,
2013-11-16 20:55:00,66.0,59.7,29.54,SSW,202,2.0,8.0,80,0.00,,OVC090,0.01,0.00,VWS V14.01,2013-11-17 02:55:00,
2013-11-16 21:00:00,66.1,59.8,29.55,SW,225,2.0,5.0,80,0.00,,OVC090,0.01,0.00,VWS V14.01,2013-11-17 03:00:00,
2013-11-16 21:05:00,66.1,59.8,29.55,SSE,158,1.0,7.0,80,0.00,,OVC090,0.01,0.00,VWS V14.01,2013-11-17 03:05:00,
2013-11-16 21:10:00,66.1,60.1,29.55,WNW,292,1.0,4.0,81,0.00,,OVC090,0.01,0.00,VWS V14.01,2013-11-17 03:10:00,
2013-11-16 21:15:00,66.1,60.1,29.54,SSW,202,2.0,6.0,81,0.00,,OVC090,0.01,0.00,VWS V14.01,2013-11-17 03:15:00,
2013-11-16 21:20:00,66.1,60.1,29.54,SSE,158,2.0,10.0,81,0.00,,OVC090,0.01,0.00,VWS V14.01,2013-11-17 03:20:00,
2013-11-16 21:25:00,66.2,60.2,29.54,SE,135,2.0,7.0,81,0.00,,OVC090,0.01,0.00,VWS V14.01,2013-11-17 03:25:00,
2013-11-16 21:30:00,66.3,60.7,29.54,SSE,158,1.0,8.0,82,0.00,,OVC090,0.01,0.00,VWS V14.01,2013-11-17 03:30:00,
2013-11-16 21:35:00,66.3,60.7,29.54,SE,135,2.0,10.0,82,0.00,,OVC090,0.01,0.00,VWS V14.01,2013-11-17 03:35:00,
2013-11-16 21:40:00,66.3,60.7,29.54,WSW,248,2.0,8.0,82,0.00,,OVC090,0.01,0.00,VWS V14.01,2013-11-17 03:40:00,
2013-11-16 21:45:00,66.4,60.7,29.53,SW,225,2.0,5.0,82,0.00,,OVC090,0.01,0.00,VWS V14.01,2013-11-17 03:45:00,
2013-11-16 21:50:00,66.4,61.1,29.53,SW,225,2.0,6.0,83,0.00,,OVC090,0.01,0.00,VWS V14.01,2013-11-17 03:50:00,
2013-11-16 21:55:00,66.5,61.2,29.53,SSW,202,1.0,6.0,83,0.00,,OVC090,0.01,0.00,VWS V14.01,2013-11-17 03:55:00,
2013-11-16 22:00:00,66.6,61.3,29.53,ESE,112,1.0,7.0,83,0.00,,OVC090,0.01,0.00,VWS V14.01,2013-11-17 04:00:00,
2013-11-16 22:05:00,66.7,61.4,29.53,SSE,158,2.0,9.0,83,0.00,,OVC090,0.01,0.00,VWS V14.01,2013-11-17 04:05:00,
2013-11-16 22:10:00,66.8,61.5,29.53,South,180,2.0,6.0,83,0.00,,OVC090,0.01,0.00,VWS V14.01,2013-11-17 04:10:00,
2013-11-16 22:15:00,67.0,61.7,29.52,SSE,158,4.0,13.0,83,0.00,,OVC090,0.01,0.00,VWS V14.01,2013-11-17 04:15:00,
2013-11-16 22:20:00,67.1,61.8,29.52,WSW,248,3.0,10.0,83,0.00,,OVC090,0.01,0.00,VWS V14.01,2013-11-17 04:20:00,
2013-11-16 22:25:00,67.1,61.8,29.52,WSW,248,3.0,12.0,83,0.00,,OVC090,0.01,0.00,VWS V14.01,2013-11-17 04:25:00,
2013-11-16 22:30:00,67.2,61.9,29.52,SW,225,3.0,7.0,83,0.00,,OVC090,0.01,0.00,VWS V14.01,2013-11-17 04:30:00,
2013-11-16 22:35:00,67.2,61.9,29.52,SW,225,2.0,8.0,83,0.00,,OVC090,0.01,0.00,VWS V14.01,2013-11-17 04:35:00,
2013-11-16 22:40:00,67.2,61.9,29.52,SW,225,3.0,12.0,83,0.00,,OVC090,0.01,0.00,VWS V14.01,2013-11-17 04:40:00,
2013-11-16 22:45:00,67.2,61.9,29.51,SE,135,4.0,14.0,83,0.00,,OVC090,0.01,0.00,VWS V14.01,2013-11-17 04:45:00,
2013-11-16 22:50:00,67.2,62.2,29.51,South,180,3.0,8.0,84,0.00,,OVC090,0.01,0.00,VWS V14.01,2013-11-17 04:50:00,
2013-11-16 22:55:00,67.2,62.2,29.51,SSE,158,2.0,7.0,84,0.00,,OVC090,0.01,0.00,VWS V14.01,2013-11-17 04:55:00,
2013-11-16 23:00:00,67.2,62.2,29.51,WSW,248,3.0,9.0,84,0.00,,OVC090,0.01,0.00,VWS V14.01,2013-11-17 05:00:00,
2013-11-16 23:05:00,67.2,62.2,29.51,SSW,202,2.0,6.0,84,0.00,,OVC090,0.01,0.00,VWS V14.01,2013-11-17 05:05:00,
2013-11-16 23:10:00,67.2,62.2,29.51,SSE,158,2.0,6.0,84,0.00,,OVC090,0.01,0.00,VWS V14.01,2013-11-17 05:10:00,
2013-11-16 23:15:00,67.2,62.2,29.51,SW,225,2.0,6.0,84,0.00,,OVC090,0.01,0.00,VWS V14.01,2013-11-17 05:15:00,
2013-11-16 23:20:00,67.2,62.2,29.51,WSW,248,2.0,7.0,84,0.00,,OVC090,0.01,0.00,VWS V14.01,2013-11-17 05:20:00,
2013-11-16 23:25:00,67.2,62.5,29.51,WSW,248,2.0,8.0,85,0.00,,OVC090,0.01,0.00,VWS V14.01,2013-11-17 05:25:00,
2013-11-16 23:30:00,67.2,62.5,29.50,SW,225,2.0,8.0,85,0.00,,OVC090,0.01,0.00,VWS V14.01,2013-11-17 05:30:00,
2013-11-16 23:35:00,67.2,62.5,29.50,SSE,158,2.0,6.0,85,0.00,,OVC090,0.01,0.00,VWS V14.01,2013-11-17 05:35:00,
2013-11-16 23:40:00,67.1,62.5,29.50,South,180,1.0,6.0,85,0.00,,OVC090,0.01,0.00,VWS V14.01,2013-11-17 05:40:00,
2013-11-16 23:45:00,67.1,62.5,29.50,SSE,158,1.0,5.0,85,0.00,,OVC090,0.01,0.00,VWS V14.01,2013-11-17 05:45:00,
2013-11-16 23:50:00,67.0,62.3,29.50,SSE,158,1.0,7.0,85,0.00,,OVC090,0.01,0.00,VWS V14.01,2013-11-17 05:50:00,
2013-11-16 23:55:00,66.9,62.6,29.50,WSW,248,2.0,9.0,86,0.00,,OVC090,0.01,0.00,VWS V14.01,2013-11-17 05:55:00,